Time;durP1;ratioP1;P1;durP2;ratioP2;P2;SDS_P1;SDS_P2;PMS_P1;PMS_P2;Temp;Humidity;BMP_temperature;BMP_pressure;BME280_temperature;BME280_humidity;BME280_pressure;Samples;Min_cycle;Max_cycle;Signal;HPM_P1;HPM_P2
2021/11/13 00:00:34;;;;;;;28.92;14.85;;;11.60;84.50;;;;;;5094632;28;20181;-82
2021/11/13 00:03:00;;;;;;;28.95;16.02;;;11.60;84.40;;;;;;5081261;28;20222;-83
2021/11/13 00:05:26;;;;;;;28.63;15.00;;;11.60;84.20;;;;;;5079425;28;20265;-83
2021/11/13 00:07:52;;;;;;;30.23;16.77;;;11.70;84.20;;;;;;5100189;28;20266;-83
2021/11/13 00:10:25;;;;;;;27.17;14.50;;;11.50;84.10;;;;;;5100507;28;20172;-83
2021/11/13 00:12:51;;;;;;;25.10;13.30;;;11.60;84.30;;;;;;5099017;28;20426;-82
2021/11/13 00:15:20;;;;;;;26.67;14.30;;;11.60;84.20;;;;;;5098334;28;20217;-83
2021/11/13 00:17:46;;;;;;;30.23;14.85;;;11.50;84.20;;;;;;5097277;28;20184;-83
2021/11/13 00:20:12;;;;;;;25.23;15.18;;;11.50;84.50;;;;;;5098781;28;20606;-83
2021/11/13 00:22:38;;;;;;;35.17;18.08;;;11.60;84.80;;;;;;5106597;28;20262;-83
2021/11/13 00:25:05;;;;;;;29.35;16.70;;;11.50;85.00;;;;;;5117855;28;20255;-83
2021/11/13 00:27:30;;;;;;;36.17;15.93;;;11.60;85.00;;;;;;5119551;28;20167;-83
2021/11/13 00:29:56;;;;;;;28.63;15.03;;;11.70;84.90;;;;;;5118373;28;20202;-83
2021/11/13 00:32:22;;;;;;;32.47;16.35;;;11.80;84.60;;;;;;5119661;28;20194;-83
2021/11/13 00:34:48;;;;;;;23.90;15.60;;;11.80;84.30;;;;;;5122360;28;20200;-83
2021/11/13 00:37:15;;;;;;;25.60;16.20;;;11.60;84.00;;;;;;5111529;28;20477;-84
2021/11/13 00:39:41;;;;;;;30.15;16.73;;;11.40;85.00;;;;;;5120058;28;20152;-82
2021/11/13 00:42:07;;;;;;;30.65;14.93;;;11.50;85.50;;;;;;5118375;28;20168;-83
2021/11/13 00:44:34;;;;;;;26.30;15.87;;;11.50;85.60;;;;;;5118330;28;20219;-83
2021/11/13 00:47:01;;;;;;;32.63;17.17;;;11.70;85.50;;;;;;5118389;28;20218;-82
2021/11/13 00:49:27;;;;;;;31.52;17.23;;;11.70;85.40;;;;;;5117751;28;20215;-83
2021/11/13 00:51:53;;;;;;;27.75;14.77;;;11.70;84.80;;;;;;5098422;28;20199;-83
2021/11/13 00:54:18;;;;;;;27.27;16.23;;;12.00;84.70;;;;;;5096831;28;20208;-82
2021/11/13 00:56:46;;;;;;;33.03;15.90;;;11.90;84.10;;;;;;5097002;28;20264;-83
2021/11/13 00:59:12;;;;;;;31.17;17.75;;;11.80;84.20;;;;;;5096858;28;20187;-82
2021/11/13 01:01:38;;;;;;;27.90;17.25;;;11.80;84.30;;;;;;5096461;28;20195;-82
2021/11/13 01:04:04;;;;;;;33.13;17.00;;;11.90;84.30;;;;;;5095781;28;20192;-83
2021/11/13 01:06:30;;;;;;;29.47;15.90;;;11.80;84.30;;;;;;5114802;28;20231;-83
2021/11/13 01:08:56;;;;;;;26.73;15.90;;;11.60;84.40;;;;;;5116382;28;20414;-82
2021/11/13 01:11:22;;;;;;;24.33;16.13;;;11.80;84.70;;;;;;5116472;28;20425;-82
2021/11/13 01:13:47;;;;;;;27.23;17.00;;;11.70;84.60;;;;;;5115040;28;20215;-82
2021/11/13 01:16:14;;;;;;;30.90;16.60;;;11.80;84.70;;;;;;5103161;28;20421;-82
2021/11/13 01:18:41;;;;;;;29.52;15.90;;;11.90;84.50;;;;;;5100680;28;20190;-82
2021/11/13 01:21:06;;;;;;;27.10;16.83;;;12.00;84.00;;;;;;5100758;28;20233;-83
2021/11/13 01:23:33;;;;;;;27.63;16.63;;;12.00;83.90;;;;;;5123457;28;20195;-83
2021/11/13 01:26:00;;;;;;;27.92;16.65;;;12.00;83.90;;;;;;5132787;28;20457;-83
2021/11/13 01:28:26;;;;;;;27.90;15.68;;;12.10;83.90;;;;;;5137416;28;20178;-83
2021/11/13 01:30:52;;;;;;;27.17;14.37;;;12.10;83.70;;;;;;5139106;28;20159;-82
2021/11/13 01:33:18;;;;;;;23.52;14.00;;;12.20;83.70;;;;;;5137093;28;20187;-83
2021/11/13 01:35:43;;;;;;;23.83;15.63;;;12.20;83.70;;;;;;5111257;28;20191;-83
2021/11/13 01:38:09;;;;;;;25.57;15.20;;;12.20;83.80;;;;;;5085179;28;20632;-82
2021/11/13 01:40:35;;;;;;;25.80;16.40;;;12.20;83.90;;;;;;5085446;28;20439;-83
2021/11/13 01:43:01;;;;;;;24.63;13.95;;;12.00;84.20;;;;;;5080797;28;20189;-83
2021/11/13 01:45:27;;;;;;;20.20;15.70;;;12.00;84.50;;;;;;5080089;28;20303;-82
2021/11/13 01:47:53;;;;;;;30.53;15.83;;;12.10;85.40;;;;;;5077824;28;20438;-83
2021/11/13 01:50:32;;;;;;;28.48;15.10;;;12.10;84.80;;;;;;5077216;28;20415;-83
2021/11/13 01:52:58;;;;;;;29.15;15.20;;;12.10;84.80;;;;;;5079053;28;20195;-83
2021/11/13 01:55:24;;;;;;;28.50;15.10;;;12.20;84.80;;;;;;5084953;28;20200;-82
2021/11/13 01:57:51;;;;;;;24.75;14.70;;;12.20;84.70;;;;;;5084723;28;20184;-82
2021/11/13 02:00:27;;;;;;;25.70;16.20;;;12.20;84.70;;;;;;5082573;28;20267;-82
2021/11/13 02:02:53;;;;;;;21.17;14.65;;;12.10;84.80;;;;;;5088196;28;20240;-82
2021/11/13 02:05:19;;;;;;;27.43;15.57;;;12.20;84.90;;;;;;5095653;28;20207;-82
2021/11/13 02:07:46;;;;;;;27.53;15.00;;;12.20;85.10;;;;;;5106087;28;20402;-82
2021/11/13 02:10:13;;;;;;;25.33;16.40;;;12.10;85.20;;;;;;5109078;28;20448;-82
2021/11/13 02:12:39;;;;;;;27.42;16.38;;;12.10;85.50;;;;;;5105707;28;20182;-83
2021/11/13 02:15:07;;;;;;;22.97;14.70;;;12.00;85.70;;;;;;5089768;28;20204;-83
2021/11/13 02:17:33;;;;;;;29.65;16.40;;;12.00;86.00;;;;;;5090297;28;20493;-83
2021/11/13 02:20:17;;;;;;;23.17;14.77;;;11.90;86.30;;;;;;5090955;28;20184;-83
2021/11/13 02:22:43;;;;;;;29.92;15.80;;;12.00;86.50;;;;;;5088885;28;20410;-83
2021/11/13 02:25:09;;;;;;;28.53;14.47;;;12.00;86.50;;;;;;5084732;28;20216;-82
2021/11/13 02:27:35;;;;;;;24.13;14.83;;;12.10;86.60;;;;;;5082593;28;20415;-82
2021/11/13 02:30:01;;;;;;;20.63;14.37;;;12.10;86.60;;;;;;5086245;28;20630;-83
2021/11/13 02:32:26;;;;;;;25.67;16.70;;;12.10;86.70;;;;;;5085355;28;20406;-82
2021/11/13 02:34:52;;;;;;;27.20;15.00;;;12.20;86.70;;;;;;5099224;28;20455;-82
2021/11/13 02:37:24;;;;;;;21.27;14.50;;;12.00;86.60;;;;;;5111100;28;20190;-82
2021/11/13 02:39:50;;;;;;;20.00;14.63;;;12.10;86.90;;;;;;5111020;28;20200;-82
2021/11/13 02:42:22;;;;;;;21.27;12.67;;;12.00;86.90;;;;;;5111992;28;20179;-82
2021/11/13 02:44:51;;;;;;;17.40;13.10;;;12.00;87.10;;;;;;5113116;28;20612;-82
2021/11/13 02:47:19;;;;;;;23.30;14.52;;;12.00;87.20;;;;;;5103226;28;20207;-82
2021/11/13 02:49:47;;;;;;;20.33;12.98;;;12.10;87.40;;;;;;5094676;28;20173;-82
2021/11/13 02:52:13;;;;;;;21.73;14.00;;;12.10;87.10;;;;;;5102356;28;20179;-81
2021/11/13 02:54:46;;;;;;;24.63;15.00;;;12.10;87.10;;;;;;5097908;28;20282;-83
2021/11/13 02:57:12;;;;;;;20.95;14.45;;;12.10;87.00;;;;;;5082713;28;20418;-83
2021/11/13 02:59:49;;;;;;;27.05;15.13;;;12.10;87.10;;;;;;5076823;28;20180;-82
2021/11/13 03:02:15;;;;;;;30.88;17.73;;;12.00;87.10;;;;;;5076056;28;20663;-82
2021/11/13 03:04:42;;;;;;;24.05;16.17;;;12.00;87.20;;;;;;5077423;28;20200;-82
2021/11/13 03:07:08;;;;;;;22.67;16.13;;;12.20;87.20;;;;;;5087802;28;20184;-82
2021/11/13 03:09:36;;;;;;;31.52;16.20;;;12.20;87.10;;;;;;5095500;28;20252;-83
2021/11/13 03:12:02;;;;;;;31.55;19.02;;;12.10;87.20;;;;;;5078390;28;20236;-82
2021/11/13 03:14:29;;;;;;;28.60;16.38;;;12.20;87.20;;;;;;5077571;28;20227;-83
2021/11/13 03:17:02;;;;;;;25.05;16.92;;;12.10;87.10;;;;;;5077957;28;20176;-82
2021/11/13 03:19:28;;;;;;;22.67;15.70;;;12.10;87.20;;;;;;5076656;28;20181;-83
2021/11/13 03:21:54;;;;;;;33.58;17.55;;;12.20;87.20;;;;;;5090137;28;20189;-83
2021/11/13 03:24:21;;;;;;;28.20;18.37;;;12.10;87.20;;;;;;5115954;28;20202;-83
2021/11/13 03:26:48;;;;;;;31.45;17.38;;;12.20;87.30;;;;;;5118470;28;20190;-83
2021/11/13 03:29:22;;;;;;;27.45;16.98;;;12.10;87.00;;;;;;5117096;28;20516;-83
2021/11/13 03:31:48;;;;;;;24.23;16.50;;;12.30;87.20;;;;;;5106778;28;20188;-83
2021/11/13 03:34:14;;;;;;;23.07;16.20;;;12.30;87.00;;;;;;5095189;28;20647;-82
2021/11/13 03:36:40;;;;;;;24.03;15.97;;;12.20;86.80;;;;;;5095451;28;20176;-83
2021/11/13 03:39:06;;;;;;;25.33;16.27;;;12.20;87.10;;;;;;5095059;28;20184;-83
2021/11/13 03:41:32;;;;;;;25.63;15.98;;;12.20;87.20;;;;;;5096838;28;20410;-83
2021/11/13 03:43:59;;;;;;;26.65;16.35;;;12.20;87.40;;;;;;5094532;28;20682;-83
2021/11/13 03:46:25;;;;;;;20.40;14.52;;;12.20;87.30;;;;;;5087058;28;20206;-83
2021/11/13 03:48:51;;;;;;;23.70;13.73;;;12.20;87.20;;;;;;5075736;28;20267;-83
2021/11/13 03:51:18;;;;;;;28.55;15.32;;;12.30;87.20;;;;;;5076649;28;20414;-82
2021/11/13 03:53:43;;;;;;;25.92;15.23;;;12.40;86.90;;;;;;5074887;28;20231;-83
2021/11/13 03:56:09;;;;;;;25.53;13.40;;;12.50;86.70;;;;;;5078420;28;20176;-83
2021/11/13 03:58:35;;;;;;;21.20;12.90;;;12.40;86.70;;;;;;5115421;28;20211;-83
2021/11/13 04:01:00;;;;;;;18.33;12.87;;;12.20;86.80;;;;;;5095763;28;20188;-83
2021/11/13 04:03:26;;;;;;;21.00;12.53;;;12.30;87.10;;;;;;5094771;28;20282;-83
2021/11/13 04:05:52;;;;;;;20.73;13.73;;;12.20;87.00;;;;;;5096904;28;20206;-83
2021/11/13 04:08:18;;;;;;;21.10;12.57;;;12.20;87.00;;;;;;5096448;28;20543;-83
2021/11/13 04:10:44;;;;;;;17.47;12.80;;;12.10;87.20;;;;;;5099970;28;20410;-83
2021/11/13 04:13:10;;;;;;;16.60;10.30;;;12.00;87.50;;;;;;5098335;28;20187;-83
2021/11/13 04:15:36;;;;;;;15.32;10.23;;;12.00;87.70;;;;;;5082603;28;20206;-82
2021/11/13 04:18:02;;;;;;;20.90;10.27;;;12.10;87.80;;;;;;5098721;28;20176;-83
2021/11/13 04:20:29;;;;;;;19.17;11.00;;;12.20;87.70;;;;;;5098944;28;20180;-83
2021/11/13 04:22:54;;;;;;;16.30;10.45;;;12.20;87.60;;;;;;5114730;28;20425;-83
2021/11/13 04:25:21;;;;;;;19.27;9.77;;;12.20;87.50;;;;;;5119187;28;20218;-82
2021/11/13 04:27:49;;;;;;;13.55;9.43;;;12.30;87.60;;;;;;5118698;28;20171;-82
2021/11/13 04:30:15;;;;;;;13.40;8.95;;;12.30;87.40;;;;;;5116934;27;20229;-82
2021/11/13 04:32:44;;;;;;;14.90;8.73;;;12.50;87.10;;;;;;5096877;28;20207;-83
2021/11/13 04:35:18;;;;;;;10.27;7.60;;;12.50;86.80;;;;;;5097858;28;20568;-82
2021/11/13 04:37:50;;;;;;;15.15;8.00;;;12.50;86.60;;;;;;5096968;28;20642;-82
2021/11/13 04:40:18;;;;;;;13.73;9.95;;;12.50;86.50;;;;;;5080537;28;20615;-82
2021/11/13 04:42:44;;;;;;;10.40;7.30;;;12.40;86.60;;;;;;5096862;28;20646;-83
2021/11/13 04:45:10;;;;;;;8.73;7.63;;;12.40;86.50;;;;;;5094843;28;20207;-83
2021/11/13 04:47:36;;;;;;;14.23;8.65;;;12.50;86.60;;;;;;5097276;28;20251;-82
2021/11/13 04:50:04;;;;;;;6.43;5.70;;;12.50;86.70;;;;;;5095789;28;20225;-83
2021/11/13 04:52:30;;;;;;;9.20;5.82;;;12.50;86.80;;;;;;5096162;28;20168;-83
2021/11/13 04:54:56;;;;;;;12.60;6.10;;;12.50;86.80;;;;;;5096302;28;20199;-83
2021/11/13 04:57:22;;;;;;;6.90;5.53;;;12.50;86.80;;;;;;5096981;28;20928;-83
2021/11/13 04:59:48;;;;;;;21.73;5.63;;;12.50;86.60;;;;;;5075147;28;20199;-83
2021/11/13 05:02:14;;;;;;;11.73;5.95;;;12.50;86.70;;;;;;5092788;28;20406;-83
2021/11/13 05:04:40;;;;;;;8.63;5.43;;;12.40;86.70;;;;;;5086113;28;20212;-83
2021/11/13 05:07:05;;;;;;;8.20;5.13;;;12.40;86.90;;;;;;5075183;28;20212;-83
2021/11/13 05:09:31;;;;;;;9.33;6.37;;;12.30;87.00;;;;;;5076100;28;20426;-83
2021/11/13 05:11:57;;;;;;;8.10;6.10;;;12.30;87.20;;;;;;5074795;28;20411;-83
2021/11/13 05:14:22;;;;;;;8.03;5.97;;;12.30;87.50;;;;;;5081322;28;20238;-83
2021/11/13 05:16:48;;;;;;;9.30;6.53;;;12.40;87.60;;;;;;5095901;28;20290;-83
2021/11/13 05:19:14;;;;;;;12.10;7.40;;;12.30;87.60;;;;;;5095988;28;20207;-83
2021/11/13 05:21:40;;;;;;;17.17;7.67;;;12.40;87.70;;;;;;5103744;28;20532;-83
2021/11/13 05:24:05;;;;;;;13.73;7.47;;;12.40;87.60;;;;;;5117846;28;20227;-82
2021/11/13 05:26:31;;;;;;;14.73;7.60;;;12.50;87.70;;;;;;5117897;28;20216;-83
2021/11/13 05:28:57;;;;;;;13.63;7.50;;;12.50;87.60;;;;;;5108197;28;20496;-83
2021/11/13 05:31:23;;;;;;;19.30;8.57;;;12.40;87.60;;;;;;5096080;28;20421;-83
2021/11/13 05:33:48;;;;;;;11.40;7.10;;;12.40;87.70;;;;;;5096828;28;20680;-83
2021/11/13 05:36:14;;;;;;;17.30;8.50;;;12.40;87.80;;;;;;5096366;28;20660;-83
2021/11/13 05:38:40;;;;;;;15.00;8.30;;;12.40;87.90;;;;;;5096479;28;20175;-82
2021/11/13 05:41:05;;;;;;;10.53;7.87;;;12.40;87.90;;;;;;5097621;28;20203;-83
2021/11/13 05:43:31;;;;;;;12.53;8.40;;;12.30;88.00;;;;;;5081241;28;20577;-83
2021/11/13 05:45:57;;;;;;;13.70;8.23;;;12.40;88.10;;;;;;5077052;28;20226;-83
2021/11/13 05:48:22;;;;;;;14.67;7.80;;;12.40;88.20;;;;;;5076983;28;20183;-83
2021/11/13 05:50:48;;;;;;;13.53;7.93;;;12.50;88.20;;;;;;5084080;28;20178;-83
2021/11/13 05:53:14;;;;;;;14.40;8.40;;;12.50;88.20;;;;;;5097867;28;21015;-83
2021/11/13 05:55:40;;;;;;;14.17;9.03;;;12.40;88.10;;;;;;5096379;28;20417;-83
2021/11/13 05:58:07;;;;;;;20.63;8.13;;;12.40;88.20;;;;;;5097219;28;20429;-83
2021/11/13 06:00:34;;;;;;;14.52;9.35;;;12.40;88.20;;;;;;5085638;28;20302;-83
2021/11/13 06:03:01;;;;;;;28.13;11.20;;;12.30;88.40;;;;;;5076669;28;20188;-83
2021/11/13 06:05:27;;;;;;;20.50;9.70;;;12.30;88.50;;;;;;5076009;28;20216;-83
2021/11/13 06:07:53;;;;;;;16.17;9.55;;;12.40;88.70;;;;;;5077155;28;20283;-83
2021/11/13 06:10:20;;;;;;;14.35;8.82;;;12.50;88.70;;;;;;5077070;28;20546;-83
2021/11/13 06:12:46;;;;;;;26.25;11.15;;;12.50;88.70;;;;;;5075712;28;20192;-83
2021/11/13 06:15:12;;;;;;;20.83;10.18;;;12.40;88.70;;;;;;5084523;28;20200;-82
2021/11/13 06:17:38;;;;;;;19.60;9.73;;;12.50;88.80;;;;;;5076006;28;20212;-83
2021/11/13 06:20:06;;;;;;;15.00;8.90;;;12.50;88.80;;;;;;5075980;28;20188;-83
2021/11/13 06:22:32;;;;;;;17.13;9.00;;;12.60;88.80;;;;;;5102401;28;20255;-83
2021/11/13 06:24:57;;;;;;;19.93;10.10;;;12.60;88.50;;;;;;5117471;28;20664;-83
2021/11/13 06:27:24;;;;;;;25.90;9.90;;;12.60;88.40;;;;;;5118419;28;20406;-83
2021/11/13 06:29:50;;;;;;;19.95;10.35;;;12.60;88.40;;;;;;5118839;28;20167;-83
2021/11/13 06:32:16;;;;;;;25.83;10.60;;;12.60;88.50;;;;;;5104886;28;20184;-83
2021/11/13 06:34:41;;;;;;;22.67;10.50;;;12.60;88.40;;;;;;5096627;28;20198;-83
2021/11/13 06:37:09;;;;;;;26.80;10.70;;;12.60;89.10;;;;;;5098515;28;20217;-83
2021/11/13 06:39:35;;;;;;;14.82;9.73;;;12.70;88.40;;;;;;5098370;28;20310;-83
2021/11/13 06:42:03;;;;;;;34.00;11.30;;;12.70;88.40;;;;;;5100280;28;20183;-83
2021/11/13 06:44:28;;;;;;;19.83;10.30;;;12.70;88.20;;;;;;5101675;28;20255;-83
2021/11/13 06:46:54;;;;;;;19.57;11.07;;;12.70;88.20;;;;;;5101926;28;20243;-83
2021/11/13 06:49:20;;;;;;;26.50;10.63;;;12.80;88.20;;;;;;5096976;28;20199;-83
2021/11/13 06:51:46;;;;;;;17.30;9.67;;;12.70;88.20;;;;;;5089285;28;20251;-83
2021/11/13 06:54:12;;;;;;;21.83;11.50;;;12.60;88.10;;;;;;5089354;28;20461;-83
2021/11/13 06:56:39;;;;;;;28.20;10.98;;;12.50;88.20;;;;;;5088061;28;20190;-83
2021/11/13 06:59:05;;;;;;;16.67;10.30;;;12.50;88.50;;;;;;5104905;28;20207;-83
2021/11/13 07:01:31;;;;;;;25.47;9.77;;;12.50;88.70;;;;;;5097094;28;20160;-83
2021/11/13 07:03:57;;;;;;;23.07;12.47;;;12.60;88.70;;;;;;5106161;28;20453;-84
2021/11/13 07:06:22;;;;;;;26.90;11.67;;;12.60;88.70;;;;;;5104889;28;20465;-84
2021/11/13 07:08:48;;;;;;;26.93;11.90;;;12.50;88.70;;;;;;5098197;28;20635;-83
2021/11/13 07:11:14;;;;;;;27.77;12.07;;;12.50;88.80;;;;;;5098472;28;20689;-83
2021/11/13 07:13:40;;;;;;;26.23;11.67;;;12.50;88.80;;;;;;5091372;28;20691;-83
2021/11/13 07:16:06;;;;;;;28.53;12.40;;;12.50;89.00;;;;;;5087960;28;20388;-83
2021/11/13 07:18:32;;;;;;;31.65;12.57;;;12.50;89.10;;;;;;5095773;28;20186;-82
2021/11/13 07:21:01;;;;;;;22.35;13.90;;;12.30;89.20;;;;;;5096054;28;20183;-83
2021/11/13 07:23:29;;;;;;;22.38;11.50;;;12.30;89.50;;;;;;5095587;28;20229;-84
2021/11/13 07:25:56;;;;;;;24.33;12.75;;;12.40;89.60;;;;;;5097911;28;20214;-81
2021/11/13 07:28:34;;;;;;;30.75;13.40;;;12.40;89.50;;;;;;5097664;28;20530;-81
2021/11/13 07:31:00;;;;;;;33.85;13.60;;;12.30;89.60;;;;;;5089471;28;20263;-82
2021/11/13 07:33:27;;;;;;;31.77;14.50;;;12.30;89.70;;;;;;5093792;28;20187;-84
2021/11/13 07:35:53;;;;;;;32.28;15.52;;;12.40;89.70;;;;;;5105022;28;20425;-83
2021/11/13 07:38:18;;;;;;;35.13;16.35;;;12.40;89.60;;;;;;5115850;28;20195;-83
2021/11/13 07:40:44;;;;;;;40.90;17.67;;;12.40;89.50;;;;;;5115392;28;20198;-84
2021/11/13 07:43:10;;;;;;;35.20;15.20;;;12.40;89.60;;;;;;5117151;28;20171;-84
2021/11/13 07:45:37;;;;;;;41.92;16.05;;;12.30;89.60;;;;;;5106495;28;20461;-84
2021/11/13 07:48:05;;;;;;;39.22;15.52;;;12.40;89.70;;;;;;5094566;28;20185;-84
2021/11/13 07:50:31;;;;;;;46.83;15.70;;;12.40;89.60;;;;;;5081285;28;20223;-84
2021/11/13 07:52:57;;;;;;;36.33;14.77;;;12.30;89.70;;;;;;5078457;28;20181;-84
2021/11/13 07:55:23;;;;;;;38.00;15.07;;;12.50;89.80;;;;;;5085948;28;20203;-82
2021/11/13 07:57:48;;;;;;;38.30;14.40;;;12.60;90.50;;;;;;5098711;28;20171;-82
2021/11/13 08:00:20;;;;;;;30.03;12.90;;;12.60;89.70;;;;;;5098665;28;20593;-82
2021/11/13 08:02:46;;;;;;;25.80;9.50;;;12.70;89.70;;;;;;5090744;28;20164;-82
2021/11/13 08:05:13;;;;;;;25.57;10.00;;;12.70;89.60;;;;;;5076597;28;20204;-81
2021/11/13 08:07:39;;;;;;;20.40;9.43;;;12.70;89.50;;;;;;5078702;28;20421;-82
2021/11/13 08:10:06;;;;;;;17.00;8.30;;;12.60;89.40;;;;;;5077880;28;20181;-83
2021/11/13 08:12:32;;;;;;;19.58;8.18;;;12.50;89.60;;;;;;5078860;28;20411;-82
2021/11/13 08:14:58;;;;;;;31.00;11.55;;;12.60;89.70;;;;;;5100618;28;20200;-82
2021/11/13 08:17:24;;;;;;;25.03;12.37;;;12.50;89.70;;;;;;5092248;28;20534;-81
2021/11/13 08:19:50;;;;;;;32.83;14.37;;;12.50;89.80;;;;;;5079754;28;20218;-83
2021/11/13 08:22:16;;;;;;;45.07;16.47;;;12.50;90.00;;;;;;5089445;28;20454;-82
2021/11/13 08:24:41;;;;;;;42.43;18.03;;;12.60;90.00;;;;;;5093023;28;20188;-82
2021/11/13 08:27:12;;;;;;;36.13;17.60;;;12.50;89.80;;;;;;5094692;28;20894;-83
2021/11/13 08:29:38;;;;;;;38.80;15.40;;;12.50;89.80;;;;;;5086739;28;20266;-82
2021/11/13 08:32:06;;;;;;;33.30;15.80;;;12.50;90.00;;;;;;5083946;28;20188;-82
2021/11/13 08:34:32;;;;;;;45.58;16.63;;;12.50;90.20;;;;;;5083807;28;20465;-83
2021/11/13 08:36:58;;;;;;;35.80;15.52;;;12.50;90.20;;;;;;5081768;28;20188;-82
2021/11/13 08:39:25;;;;;;;37.67;14.87;;;12.50;90.20;;;;;;5080326;28;20161;-83
2021/11/13 08:41:51;;;;;;;33.70;13.75;;;12.50;90.30;;;;;;5079614;28;20435;-83
2021/11/13 08:44:17;;;;;;;27.70;14.93;;;12.60;90.40;;;;;;5080970;28;20196;-83
2021/11/13 08:46:43;;;;;;;37.43;12.97;;;12.70;90.40;;;;;;5081347;28;20196;-83
2021/11/13 08:49:09;;;;;;;27.67;12.73;;;12.70;90.30;;;;;;5080896;28;20468;-83
2021/11/13 08:51:35;;;;;;;25.77;11.20;;;12.70;90.30;;;;;;5081683;28;20411;-83
2021/11/13 08:54:01;;;;;;;29.83;12.60;;;12.70;90.20;;;;;;5087575;28;20573;-83
2021/11/13 08:56:30;;;;;;;23.10;9.32;;;12.70;90.20;;;;;;5100765;28;20179;-83
2021/11/13 08:58:59;;;;;;;22.70;10.07;;;12.70;90.90;;;;;;5101158;28;20183;-83
2021/11/13 09:01:28;;;;;;;18.25;9.10;;;12.70;90.20;;;;;;5096840;28;20172;-83
2021/11/13 09:03:54;;;;;;;19.80;9.40;;;12.70;90.10;;;;;;5086333;28;20223;-83
2021/11/13 09:06:22;;;;;;;16.13;8.10;;;12.80;90.10;;;;;;5089816;28;20215;-83
2021/11/13 09:08:50;;;;;;;25.65;10.10;;;12.70;90.10;;;;;;5109878;28;20218;-83
2021/11/13 09:11:22;;;;;;;13.77;7.57;;;12.80;90.10;;;;;;5092690;28;20635;-83
2021/11/13 09:13:49;;;;;;;22.13;8.52;;;12.70;90.10;;;;;;5091027;28;20216;-83
2021/11/13 09:16:19;;;;;;;17.00;8.93;;;12.70;90.30;;;;;;5097464;28;20184;-83
2021/11/13 09:18:44;;;;;;;10.45;6.53;;;12.80;90.30;;;;;;5097664;28;20184;-83
2021/11/13 09:21:12;;;;;;;8.77;6.43;;;13.00;90.20;;;;;;5097872;28;20176;-83
2021/11/13 09:23:38;;;;;;;6.93;5.70;;;12.90;90.00;;;;;;5097074;28;20563;-83
2021/11/13 09:26:10;;;;;;;13.20;6.75;;;12.90;90.00;;;;;;5096797;28;20203;-83
2021/11/13 09:28:37;;;;;;;11.20;6.22;;;13.00;89.80;;;;;;5096422;28;20155;-83
2021/11/13 09:31:03;;;;;;;12.23;7.22;;;13.20;89.80;;;;;;5095373;28;20639;-83
2021/11/13 09:33:30;;;;;;;10.18;6.40;;;13.30;89.50;;;;;;5096852;28;20540;-83
2021/11/13 09:35:56;;;;;;;15.20;7.43;;;13.40;89.30;;;;;;5089163;28;20177;-83
2021/11/13 09:38:24;;;;;;;16.17;5.38;;;13.50;89.20;;;;;;5079387;28;20176;-83
2021/11/13 09:40:52;;;;;;;16.58;5.43;;;13.50;88.80;;;;;;5080159;28;20240;-82
2021/11/13 09:43:20;;;;;;;15.80;6.90;;;13.40;88.50;;;;;;5077564;28;20183;-83
2021/11/13 09:45:46;;;;;;;9.27;5.80;;;13.50;88.40;;;;;;5077254;28;20655;-83
2021/11/13 09:48:12;;;;;;;9.73;5.70;;;13.50;88.10;;;;;;5077616;28;20267;-83
2021/11/13 09:50:44;;;;;;;10.80;5.28;;;13.50;87.90;;;;;;5076548;28;20425;-83
2021/11/13 09:53:10;;;;;;;9.20;5.35;;;13.50;87.70;;;;;;5075305;28;20197;-83
2021/11/13 09:55:36;;;;;;;7.83;4.73;;;13.70;87.70;;;;;;5080302;28;20208;-83
2021/11/13 09:58:03;;;;;;;10.20;4.72;;;13.80;87.20;;;;;;5095870;28;20172;-83
2021/11/13 10:00:31;;;;;;;11.52;5.00;;;14.00;87.00;;;;;;5095601;28;20275;-83
2021/11/13 10:02:58;;;;;;;6.65;4.65;;;14.00;86.40;;;;;;5095619;28;20194;-84
2021/11/13 10:05:24;;;;;;;6.63;4.40;;;13.90;86.00;;;;;;5105599;28;20200;-83
2021/11/13 10:07:50;;;;;;;6.90;4.20;;;13.80;85.80;;;;;;5097558;28;20247;-83
2021/11/13 10:10:27;;;;;;;5.90;4.80;;;13.70;85.90;;;;;;5096272;28;20263;-83
2021/11/13 10:12:56;;;;;;;11.30;5.65;;;13.70;86.20;;;;;;5093815;28;20191;-84
2021/11/13 10:15:37;;;;;;;12.50;4.95;;;13.70;86.40;;;;;;5076844;28;20275;-83
2021/11/13 10:18:15;;;;;;;10.63;5.43;;;13.60;86.60;;;;;;5077206;28;20180;-83
2021/11/13 10:20:46;;;;;;;8.27;4.78;;;13.70;86.90;;;;;;5075815;28;20268;-83
2021/11/13 10:23:26;;;;;;;6.25;4.10;;;13.70;87.00;;;;;;5113210;28;20230;-83
2021/11/13 10:25:59;;;;;;;11.43;5.07;;;13.80;87.20;;;;;;5118131;28;20191;-83
2021/11/13 10:28:25;;;;;;;5.80;3.88;;;13.90;86.80;;;;;;5116672;28;20168;-83
2021/11/13 10:31:24;;;;;;;8.63;6.05;;;14.10;86.70;;;;;;5102300;28;20175;-82
2021/11/13 10:33:53;;;;;;;4.78;4.00;;;14.20;86.20;;;;;;5092173;28;20204;-83
2021/11/13 10:36:22;;;;;;;6.55;4.15;;;14.50;85.90;;;;;;5075610;28;20551;-83
2021/11/13 10:38:57;;;;;;;6.70;4.30;;;14.50;85.40;;;;;;5092014;28;20208;-82
2021/11/13 10:41:26;;;;;;;4.00;3.15;;;14.70;85.00;;;;;;5077602;28;20191;-83
2021/11/13 10:43:52;;;;;;;6.28;3.15;;;14.60;84.10;;;;;;5076133;28;20197;-82
2021/11/13 10:46:23;;;;;;;6.63;3.20;;;14.60;83.60;;;;;;5095423;28;20231;-82
2021/11/13 10:48:55;;;;;;;4.60;3.40;;;14.70;83.30;;;;;;5078217;28;20411;-82
2021/11/13 10:51:27;;;;;;;9.75;4.00;;;14.60;83.10;;;;;;5081314;28;20191;-83
2021/11/13 10:53:53;;;;;;;4.88;3.30;;;14.60;83.20;;;;;;5080863;28;20192;-81
2021/11/13 10:56:24;;;;;;;5.32;3.25;;;14.60;83.20;;;;;;5085396;28;20196;-83
2021/11/13 10:58:50;;;;;;;7.97;3.45;;;14.70;83.30;;;;;;5084119;28;20184;-83
2021/11/13 11:01:42;;;;;;;5.13;3.87;;;14.70;82.90;;;;;;5080919;28;20180;-83
2021/11/13 11:04:20;;;;;;;4.65;4.05;;;14.70;82.70;;;;;;5078683;28;20208;-83
2021/11/13 11:06:49;;;;;;;4.35;3.17;;;14.70;82.70;;;;;;5060434;28;20204;-84
2021/11/13 11:09:17;;;;;;;3.42;3.10;;;14.60;82.40;;;;;;5076491;28;20169;-83
2021/11/13 11:11:43;;;;;;;3.40;2.95;;;14.60;82.50;;;;;;5077611;28;20184;-83
2021/11/13 11:14:13;;;;;;;6.70;4.10;;;14.40;82.60;;;;;;5074037;28;20212;-83
2021/11/13 11:16:40;;;;;;;7.03;4.28;;;14.40;82.80;;;;;;5073317;28;20419;-83
2021/11/13 11:19:08;;;;;;;4.93;3.63;;;14.30;83.00;;;;;;5075646;28;20715;-83
2021/11/13 11:21:45;;;;;;;6.35;3.95;;;14.30;83.10;;;;;;5079940;28;20176;-83
2021/11/13 11:24:34;;;;;;;5.65;4.45;;;14.20;83.50;;;;;;5096441;28;20187;-83
2021/11/13 11:27:11;;;;;;;5.20;4.28;;;14.20;83.60;;;;;;5096303;28;20223;-84
2021/11/13 11:30:11;;;;;;;5.15;4.00;;;14.10;83.50;;;;;;5095567;28;20634;-84
2021/11/13 11:32:43;;;;;;;7.35;3.50;;;14.00;83.70;;;;;;5097217;28;20172;-84
2021/11/13 11:35:12;;;;;;;9.95;4.47;;;14.20;84.20;;;;;;5085298;28;20548;-84
2021/11/13 11:37:40;;;;;;;7.05;4.05;;;14.20;84.30;;;;;;5078353;28;20173;-84
2021/11/13 11:40:34;;;;;;;8.60;3.88;;;14.30;84.30;;;;;;5078101;28;20244;-83
2021/11/13 11:43:01;;;;;;;5.03;3.95;;;14.30;84.10;;;;;;5082316;28;20178;-84
2021/11/13 11:45:33;;;;;;;8.38;3.28;;;14.60;84.00;;;;;;5095146;28;20216;-83
2021/11/13 11:48:00;;;;;;;6.30;3.15;;;14.70;83.10;;;;;;5082034;28;20567;-84
2021/11/13 11:50:49;;;;;;;9.10;2.78;;;14.80;82.30;;;;;;5081075;28;20176;-83
2021/11/13 11:53:20;;;;;;;3.75;2.55;;;14.90;81.80;;;;;;5085487;28;20546;-84
2021/11/13 11:56:04;;;;;;;5.10;3.33;;;15.00;81.30;;;;;;5079193;28;20180;-83
2021/11/13 11:58:31;;;;;;;11.15;5.35;;;15.00;80.80;;;;;;5079464;28;20643;-82
2021/11/13 12:00:59;;;;;;;3.50;3.20;;;15.00;80.50;;;;;;5077069;28;20265;-83
2021/11/13 12:03:35;;;;;;;7.10;3.65;;;15.00;80.60;;;;;;5077634;28;20185;-82
2021/11/13 12:06:02;;;;;;;5.47;3.45;;;15.20;80.70;;;;;;5077747;28;20259;-82
2021/11/13 12:08:29;;;;;;;6.47;2.92;;;15.20;80.20;;;;;;5078234;28;20263;-84
2021/11/13 12:11:26;;;;;;;4.32;2.28;;;14.90;80.60;;;;;;5082400;28;20191;-83
2021/11/13 12:13:52;;;;;;;2.70;1.70;;;14.40;82.00;;;;;;5098990;28;20238;-84
2021/11/13 12:16:23;;;;;;;1.90;1.70;;;14.20;83.20;;;;;;5111245;28;20192;-83
2021/11/13 12:18:49;;;;;;;4.95;1.35;;;14.00;83.90;;;;;;5100266;28;20207;-84
2021/11/13 12:21:16;;;;;;;2.90;1.70;;;14.00;84.20;;;;;;5100621;28;20187;-83
2021/11/13 12:23:50;;;;;;;5.80;1.80;;;14.00;84.40;;;;;;5117393;28;20195;-84
2021/11/13 12:26:33;;;;;;;3.72;2.40;;;13.80;84.70;;;;;;5107776;28;20264;-84
2021/11/13 12:29:13;;;;;;;4.60;1.55;;;13.70;85.00;;;;;;5098808;28;20573;-85
2021/11/13 12:31:43;;;;;;;4.25;2.47;;;13.60;85.30;;;;;;5096030;28;20184;-84
2021/11/13 12:34:14;;;;;;;6.15;2.22;;;13.50;86.10;;;;;;5081034;28;20245;-84
2021/11/13 12:36:58;;;;;;;4.13;2.75;;;13.40;86.50;;;;;;5082712;28;20643;-83